This is the latest recevied weather packets stored in our database for station/object KE2A-13. If no packets are shown the sender has not sent any weather packets the latest 10 day(s).
| Time | Temp. | Humidity | Pressure | Rain* | Wind** | Luminosity | Snow |
|---|---|---|---|---|---|---|---|
| 1778157900 | 11.67° C | 82% | 1010.9 hPa | 3.56 mm | - | - | - |
| 1778157000 | 12.22° C | 79% | 1010.8 hPa | 3.56 mm | - | - | - |
| 1778156100 | 11.11° C | 88% | 1010.9 hPa | 3.56 mm | - | - | - |
| 1778155200 | 9.44° C | 94% | 1010.8 hPa | 3.56 mm | - | - | - |
| 1778154300 | 9.44° C | 96% | 1010.8 hPa | 3.56 mm | - | - | - |
| 1778153400 | 8.89° C | 97% | 1010.6 hPa | 3.56 mm | - | - | - |
| 1778152500 | 8.89° C | 97% | 1010.6 hPa | 3.56 mm | - | - | - |
| 1778151600 | 8.89° C | 97% | 1010.4 hPa | 3.56 mm | - | - | - |
| 1778150700 | 8.89° C | 97% | 1010.1 hPa | 3.56 mm | - | - | - |
| 1778149800 | 8.89° C | 97% | 1009.9 hPa | 3.56 mm | - | - | - |
| 1778148900 | 8.89° C | 97% | 1009.7 hPa | 3.56 mm | - | - | - |
| 1778148000 | 8.89° C | 97% | 1009.6 hPa | 3.56 mm | - | - | - |
| 1778147100 | 8.89° C | 96% | 1009.6 hPa | 3.56 mm | - | - | - |
| 1778146200 | 8.89° C | 96% | 1009.5 hPa | 3.56 mm | - | - | - |
| 1778145300 | 9.44° C | 96% | 1009.4 hPa | 3.56 mm | - | - | - |
| 1778144400 | 9.44° C | 97% | 1009.5 hPa | 3.56 mm | - | - | - |
| 1778143500 | 10° C | 97% | 1009.6 hPa | 3.56 mm | - | - | - |
| 1778142600 | 10° C | 97% | 1009.4 hPa | 3.56 mm | - | - | - |
| 1778141700 | 10° C | 97% | 1009.1 hPa | 3.3 mm | - | - | - |
| 1778140800 | 10° C | 97% | 1009.9 hPa | 3.3 mm | - | - | - |
| 1778139900 | 10.56° C | 97% | 1009.6 hPa | 3.05 mm | - | - | - |
| 1778139000 | 10.56° C | 96% | 1009.9 hPa | 3.05 mm | - | - | - |
| 1778138100 | 10.56° C | 96% | 1009.6 hPa | 3.05 mm | - | - | - |
| 1778137200 | 10.56° C | 95% | 1009.5 hPa | 2.29 mm | - | - | - |
| 1778136300 | 11.11° C | 94% | 1009.7 hPa | 1.78 mm | - | - | - |
* Rain since midnight (hover to see other rain measurements)
** Current wind speed in m/s (hover to see current wind gust speed)